Time;durP1;ratioP1;P1;durP2;ratioP2;P2;SDS_P1;SDS_P2;PMS_P1;PMS_P2;Temp;Humidity;BMP_temperature;BMP_pressure;BME280_temperature;BME280_humidity;BME280_pressure;Samples;Min_cycle;Max_cycle;Signal;HPM_P1;HPM_P2
2022/04/04 00:02:24;;;;;;;7.72;4.22;;;;;;;0.31;82.71;101865.16;5038316;28;20178;-86
2022/04/04 00:04:49;;;;;;;8.40;4.63;;;;;;;0.29;82.35;101862.50;5029565;28;20474;-91
2022/04/04 00:07:14;;;;;;;9.93;5.25;;;;;;;0.30;82.17;101853.56;5042350;28;20033;-85
2022/04/04 00:09:40;;;;;;;7.10;5.15;;;;;;;0.29;82.57;101859.81;5045421;28;20123;-85
2022/04/04 00:12:06;;;;;;;10.80;5.43;;;;;;;0.23;82.69;101847.44;5036359;28;20028;-90
2022/04/04 00:14:31;;;;;;;14.50;6.05;;;;;;;0.21;83.02;101841.19;5046667;28;20099;-85
2022/04/04 00:17:00;;;;;;;9.30;5.57;;;;;;;0.23;82.81;101843.84;5030322;28;20037;-85
2022/04/04 00:19:25;;;;;;;10.40;5.90;;;;;;;0.23;83.13;101846.50;5054636;28;20029;-85
2022/04/04 00:21:51;;;;;;;12.23;5.40;;;;;;;0.22;82.88;101842.94;5028563;28;20051;-86
2022/04/04 00:24:16;;;;;;;13.98;5.97;;;;;;;0.22;82.79;101836.72;5046528;28;20464;-88
2022/04/04 00:26:42;;;;;;;8.23;5.53;;;;;;;0.21;83.00;101833.16;5047771;28;20043;-85
2022/04/04 00:29:08;;;;;;;8.65;5.65;;;;;;;0.17;83.28;101827.88;5053924;28;20044;-90
2022/04/04 00:31:33;;;;;;;12.75;6.03;;;;;;;0.10;82.84;101821.72;5048499;28;20065;-86
2022/04/04 00:33:58;;;;;;;9.90;6.10;;;;;;;0.14;83.12;101828.81;5051497;28;20083;-90
2022/04/04 00:36:24;;;;;;;10.57;6.00;;;;;;;0.15;83.31;101825.22;5049407;28;20052;-89
2022/04/04 00:38:49;;;;;;;11.93;6.70;;;;;;;0.11;82.89;101812.78;5038576;28;20036;-84
2022/04/04 00:41:15;;;;;;;11.15;5.95;;;;;;;0.11;82.92;101810.13;5034361;28;20129;-89
2022/04/04 00:43:41;;;;;;;10.73;6.60;;;;;;;0.12;83.67;101817.22;5033324;28;20163;-86
2022/04/04 00:46:11;;;;;;;10.68;5.95;;;;;;;0.11;83.26;101810.13;5025217;28;20037;-86
2022/04/04 00:48:37;;;;;;;10.18;6.00;;;;;;;0.07;83.31;101802.16;5049396;28;20136;-91
2022/04/04 00:51:03;;;;;;;13.57;7.25;;;;;;;0.07;83.06;101810.19;5049954;28;20033;-89
2022/04/04 00:53:30;;;;;;;10.82;6.95;;;;;;;0.05;83.26;101803.94;5042028;28;20052;-85
2022/04/04 00:55:55;;;;;;;13.07;7.25;;;;;;;0.02;83.54;101791.53;5038839;28;20029;-85
2022/04/04 00:58:22;;;;;;;11.00;6.32;;;;;;;0.02;83.49;101796.88;5030387;28;20065;-85
2022/04/04 01:00:48;;;;;;;11.70;6.40;;;;;;;0.03;83.53;101792.41;5052650;28;20103;-86
2022/04/04 01:03:15;;;;;;;13.65;7.22;;;;;;;0.02;83.69;101787.97;5051261;28;20104;-88
2022/04/04 01:05:44;;;;;;;10.07;6.40;;;;;;;-0.05;83.26;101784.47;5046799;28;20038;-89
2022/04/04 01:08:12;;;;;;;12.77;6.32;;;;;;;-0.04;84.10;101780.91;5032217;28;20033;-88
2022/04/04 01:10:38;;;;;;;10.85;6.15;;;;;;;-0.08;83.62;101768.50;5050725;28;20052;-85
2022/04/04 01:13:04;;;;;;;13.23;7.10;;;;;;;-0.12;83.83;101759.63;5052852;28;20492;-90
2022/04/04 01:15:32;;;;;;;11.60;6.75;;;;;;;-0.09;83.99;101759.59;5051593;28;20127;-86
2022/04/04 01:17:59;;;;;;;10.07;6.03;;;;;;;-0.11;83.42;101753.34;5051372;28;20029;-84
2022/04/04 01:20:24;;;;;;;11.73;6.65;;;;;;;-0.12;83.73;101751.59;5049444;28;20028;-89
2022/04/04 01:22:50;;;;;;;15.55;7.72;;;;;;;-0.13;83.92;101743.59;5032398;28;20419;-85
2022/04/04 01:25:22;;;;;;;15.02;7.47;;;;;;;-0.11;83.94;101739.09;5032759;28;20029;-85
2022/04/04 01:27:48;;;;;;;13.00;6.75;;;;;;;-0.17;83.37;101734.72;5029969;28;20079;-85
2022/04/04 01:30:13;;;;;;;15.88;6.55;;;;;;;-0.15;83.58;101730.22;5035894;28;20511;-86
2022/04/04 01:32:40;;;;;;;10.15;6.30;;;;;;;-0.16;83.24;101728.47;5049068;28;20032;-91
2022/04/04 01:35:05;;;;;;;15.55;6.88;;;;;;;-0.16;83.71;101732.94;5034826;28;20047;-90
2022/04/04 01:37:31;;;;;;;10.15;7.18;;;;;;;-0.15;83.78;101727.56;5042431;28;20492;-85
2022/04/04 01:39:58;;;;;;;14.30;7.10;;;;;;;-0.17;83.30;101721.34;5018615;28;20029;-85
2022/04/04 01:42:24;;;;;;;13.40;7.22;;;;;;;-0.16;83.31;101701.72;5049831;28;20029;-85
2022/04/04 01:44:50;;;;;;;10.18;6.50;;;;;;;-0.14;83.02;101710.63;5049532;28;20059;-85
2022/04/04 01:47:41;;;;;;;14.60;7.10;;;;;;;-0.14;83.16;101694.59;5041521;28;20639;-88
2022/04/04 01:50:07;;;;;;;13.15;6.82;;;;;;;-0.09;83.57;101694.53;5018590;28;20033;-86
2022/04/04 01:52:32;;;;;;;13.95;6.80;;;;;;;-0.12;83.23;101679.38;5037156;28;20477;-86
2022/04/04 01:54:57;;;;;;;11.77;6.97;;;;;;;-0.11;83.40;101686.50;5029104;28;20099;-89
2022/04/04 01:57:23;;;;;;;9.30;6.45;;;;;;;-0.06;83.51;101676.59;5040589;28;20033;-88
2022/04/04 01:59:49;;;;;;;10.18;6.43;;;;;;;-0.01;83.19;101681.88;5048057;28;20514;-89
2022/04/04 02:02:15;;;;;;;14.18;7.07;;;;;;;0.02;83.07;101672.94;5031864;28;20037;-86
2022/04/04 02:04:40;;;;;;;12.02;6.65;;;;;;;0.02;83.08;101670.28;5031043;28;20131;-87
2022/04/04 02:07:08;;;;;;;12.80;6.70;;;;;;;0.05;82.90;101664.84;5046092;28;20120;-89
2022/04/04 02:09:35;;;;;;;11.15;6.82;;;;;;;0.03;82.56;101662.22;5025227;28;20049;-89
2022/04/04 02:12:01;;;;;;;12.65;6.72;;;;;;;0.02;83.00;101652.44;5032192;28;20115;-86
2022/04/04 02:14:26;;;;;;;13.50;6.97;;;;;;;0.03;82.91;101650.63;5040036;28;20044;-89
2022/04/04 02:16:52;;;;;;;14.00;7.38;;;;;;;0.09;82.75;101656.75;5029345;28;20039;-90
2022/04/04 02:19:17;;;;;;;12.35;7.32;;;;;;;0.06;82.59;101643.44;5027427;28;20051;-92
2022/04/04 02:21:44;;;;;;;10.80;7.05;;;;;;;0.07;82.69;101642.53;5027907;28;20039;-86
2022/04/04 02:24:09;;;;;;;12.68;6.22;;;;;;;0.11;82.80;101641.59;5031215;28;20507;-91
2022/04/04 02:26:35;;;;;;;11.32;6.63;;;;;;;0.11;82.44;101638.03;5048104;28;20143;-89
2022/04/04 02:29:00;;;;;;;9.75;7.13;;;;;;;0.11;82.03;101630.88;5032338;28;20037;-86
2022/04/04 02:31:26;;;;;;;12.98;6.60;;;;;;;0.15;82.43;101621.91;5038049;28;20041;-88
2022/04/04 02:33:52;;;;;;;13.52;6.90;;;;;;;0.17;82.46;101617.38;5023854;28;20044;-86
2022/04/04 02:36:18;;;;;;;10.07;6.30;;;;;;;0.21;82.50;101613.75;5021575;28;20024;-90
2022/04/04 02:38:43;;;;;;;11.93;7.07;;;;;;;0.23;82.19;101611.97;5045315;28;20408;-91
2022/04/04 02:41:09;;;;;;;10.48;6.15;;;;;;;0.29;82.54;101618.09;5031347;28;20044;-89
2022/04/04 02:43:34;;;;;;;12.45;6.53;;;;;;;0.31;82.38;101608.25;5044406;28;20025;-89
2022/04/04 02:46:00;;;;;;;11.48;6.95;;;;;;;0.35;82.37;101600.13;5046971;28;20037;-86
2022/04/04 02:48:25;;;;;;;11.00;5.97;;;;;;;0.41;82.01;101594.66;5046895;28;20041;-85
2022/04/04 02:50:52;;;;;;;11.32;6.00;;;;;;;0.42;81.99;101588.41;5024715;28;20094;-84
2022/04/04 02:53:18;;;;;;;14.82;6.25;;;;;;;0.45;82.25;101587.47;5039913;28;20033;-89
2022/04/04 02:58:27;;;;;;;11.10;6.10;;;;;;;0.50;81.70;101581.09;5049221;28;20437;-90
2022/04/04 03:00:53;;;;;;;10.63;5.85;;;;;;;0.51;82.00;101557.88;5047801;28;20044;-88
2022/04/04 03:03:19;;;;;;;11.98;6.45;;;;;;;0.54;81.90;101557.84;5030598;28;20376;-85
2022/04/04 03:05:44;;;;;;;11.52;6.18;;;;;;;0.55;82.17;101553.38;5029453;28;20033;-87
2022/04/04 03:08:10;;;;;;;10.70;6.03;;;;;;;0.59;82.09;101553.28;5038665;28;20378;-86
2022/04/04 03:10:35;;;;;;;9.43;5.28;;;;;;;0.65;81.94;101554.94;5030287;28;20049;-85
2022/04/04 03:13:04;;;;;;;10.05;5.32;;;;;;;0.64;81.79;101542.47;5049037;28;20521;-85
2022/04/04 03:15:34;;;;;;;7.93;5.35;;;;;;;0.65;82.36;101534.44;5046658;28;20365;-88
2022/04/04 03:17:59;;;;;;;10.13;5.75;;;;;;;0.68;81.99;101537.03;5035834;28;20396;-90
2022/04/04 03:20:25;;;;;;;11.68;6.53;;;;;;;0.71;81.99;101534.28;5039727;28;21458;-85
2022/04/04 03:22:54;;;;;;;8.32;6.03;;;;;;;0.70;82.05;101519.16;5037658;28;20044;-90
2022/04/04 03:25:19;;;;;;;9.88;6.32;;;;;;;0.74;82.25;101527.97;5010991;28;20041;-90
2022/04/04 03:27:46;;;;;;;10.15;5.43;;;;;;;0.75;82.07;101519.06;5019993;28;20017;-88
2022/04/04 03:30:19;;;;;;;11.13;5.65;;;;;;;0.74;81.94;101511.91;5026379;28;20496;-90
2022/04/04 03:32:45;;;;;;;;;;;;;;;0.77;81.78;101511.84;5014937;28;20059;-89
2022/04/04 03:35:14;;;;;;;8.55;5.30;;;;;;;0.77;81.94;101502.03;5039222;28;20309;-85
2022/04/04 03:37:41;;;;;;;9.68;6.00;;;;;;;0.80;82.29;101500.22;5037072;28;20033;-93
2022/04/04 03:40:09;;;;;;;11.07;6.25;;;;;;;0.82;82.03;101496.56;5037064;28;20052;-85
2022/04/04 03:42:37;;;;;;;10.32;5.55;;;;;;;0.85;82.39;101492.97;5045806;28;20471;-88
2022/04/04 03:45:04;;;;;;;8.27;5.13;;;;;;;0.86;81.98;101487.56;5046923;28;20052;-85
2022/04/04 03:47:31;;;;;;;8.13;5.50;;;;;;;0.90;81.81;101474.97;5046742;28;20037;-86
2022/04/04 03:49:59;;;;;;;13.00;5.72;;;;;;;0.92;81.91;101470.47;5029525;28;20499;-90
2022/04/04 03:52:24;;;;;;;11.88;6.63;;;;;;;0.95;82.00;101479.31;5041619;28;20119;-89
2022/04/04 03:54:50;;;;;;;10.85;6.10;;;;;;;0.97;82.08;101465.88;5018018;28;20060;-88
2022/04/04 03:57:15;;;;;;;8.13;5.65;;;;;;;1.01;81.83;101457.72;5031996;28;20071;-84
2022/04/04 03:59:41;;;;;;;9.30;5.70;;;;;;;1.02;81.85;101458.59;5046401;28;20036;-88
2022/04/04 04:02:06;;;;;;;11.23;6.40;;;;;;;1.01;82.21;101449.69;5030036;28;20060;-85
2022/04/04 04:04:32;;;;;;;10.13;6.30;;;;;;;1.09;82.07;101448.66;5026248;28;20110;-90
2022/04/04 04:06:57;;;;;;;11.50;6.25;;;;;;;1.13;81.88;101444.97;5044196;28;20550;-86
2022/04/04 04:09:22;;;;;;;9.20;5.57;;;;;;;1.14;81.60;101442.25;5047316;28;20118;-85
2022/04/04 04:11:48;;;;;;;9.07;5.57;;;;;;;1.19;81.78;101437.66;5029714;28;20045;-89
2022/04/04 04:14:14;;;;;;;11.18;5.88;;;;;;;1.22;82.19;101429.56;5030793;28;20047;-86
2022/04/04 04:16:39;;;;;;;8.63;5.78;;;;;;;1.27;81.85;101424.09;5047848;28;20040;-85
2022/04/04 04:20:19;;;;;;;11.02;5.93;;;;;;;1.28;81.61;101425.84;5044367;28;20131;-90
2022/04/04 04:21:50;;;;;;;9.88;6.03;;;;;;;1.35;81.98;101422.06;5044324;28;20480;-90
2022/04/04 04:24:16;;;;;;;10.77;5.90;;;;;;;1.34;81.61;101420.31;5044155;28;20039;-85
2022/04/04 04:26:41;;;;;;;13.73;6.10;;;;;;;1.33;81.37;101404.28;5028548;28;20072;-85
2022/04/04 04:29:06;;;;;;;9.38;5.95;;;;;;;1.36;81.49;101410.47;5028458;28;20025;-90
2022/04/04 04:31:32;;;;;;;11.82;6.43;;;;;;;1.37;81.62;101395.25;5028197;28;20033;-89
2022/04/04 04:33:57;;;;;;;14.80;6.32;;;;;;;1.40;81.73;101395.16;5044269;28;20040;-86
2022/04/04 04:36:23;;;;;;;13.68;6.95;;;;;;;1.46;81.54;101384.28;5028060;28;20025;-86
2022/04/04 04:38:48;;;;;;;10.57;6.18;;;;;;;1.51;81.40;101380.56;5029023;28;20480;-85
2022/04/04 04:41:13;;;;;;;12.45;6.50;;;;;;;1.52;81.41;101381.44;5024873;28;20128;-91
2022/04/04 04:43:41;;;;;;;10.02;5.95;;;;;;;1.55;80.99;101367.09;5022697;28;20056;-91
2022/04/04 04:46:07;;;;;;;12.15;6.30;;;;;;;1.59;81.42;101372.31;5046099;28;20068;-91
2022/04/04 04:48:32;;;;;;;11.30;6.15;;;;;;;1.56;81.06;101360.78;5030772;28;20476;-86
2022/04/04 04:50:58;;;;;;;10.27;5.63;;;;;;;1.62;81.32;101371.34;5028815;28;20041;-93
2022/04/04 04:53:23;;;;;;;12.57;6.28;;;;;;;1.63;81.39;101365.97;5044552;28;20106;-86
2022/04/04 04:55:49;;;;;;;11.25;7.00;;;;;;;1.65;81.51;101360.53;5028976;28;20087;-85
2022/04/04 04:58:14;;;;;;;10.90;6.25;;;;;;;1.64;81.12;101354.31;5045883;28;20028;-87
2022/04/04 05:00:40;;;;;;;11.73;7.22;;;;;;;1.68;81.58;101352.41;5026953;28;20041;-85
2022/04/04 05:03:24;;;;;;;14.77;7.63;;;;;;;1.72;81.74;101340.66;5028383;28;20033;-90
2022/04/04 05:05:50;;;;;;;13.23;6.55;;;;;;;1.73;81.35;101335.28;5029838;28;20150;-86
2022/04/04 05:08:15;;;;;;;12.10;7.38;;;;;;;1.79;81.11;101343.16;5039402;28;20036;-85
2022/04/04 05:10:41;;;;;;;12.88;7.07;;;;;;;1.83;81.13;101326.97;5026657;28;20106;-86
2022/04/04 05:13:06;;;;;;;11.20;6.45;;;;;;;1.87;80.79;101325.97;5038721;28;20124;-89
2022/04/04 05:15:32;;;;;;;14.07;6.97;;;;;;;1.89;81.10;101324.97;5032997;28;20098;-86
2022/04/04 05:17:57;;;;;;;14.02;8.05;;;;;;;1.94;80.81;101306.94;5050212;28;20400;-90
2022/04/04 05:20:23;;;;;;;12.15;6.68;;;;;;;1.96;81.21;101301.56;5031875;28;20502;-90
2022/04/04 05:22:48;;;;;;;12.82;7.55;;;;;;;2.04;80.82;101303.06;5031785;28;20036;-88
2022/04/04 05:25:14;;;;;;;14.25;7.85;;;;;;;2.10;80.92;101296.66;5046791;28;20047;-90
2022/04/04 05:27:40;;;;;;;13.10;7.75;;;;;;;2.14;80.68;101286.69;5048358;28;20480;-87
2022/04/04 05:30:07;;;;;;;13.68;6.82;;;;;;;2.15;80.95;101283.97;5065507;28;20041;-88
2022/04/04 05:32:33;;;;;;;11.20;7.70;;;;;;;2.19;81.00;101280.28;5040501;28;20032;-90
2022/04/04 05:34:58;;;;;;;13.30;7.72;;;;;;;2.18;80.61;101269.56;5043546;28;20159;-89
2022/04/04 05:37:25;;;;;;;16.67;8.55;;;;;;;2.22;80.91;101272.09;5026846;28;20037;-86
2022/04/04 05:39:50;;;;;;;14.05;7.97;;;;;;;2.26;80.74;101273.75;5026208;28;20029;-86
2022/04/04 05:42:16;;;;;;;17.27;7.85;;;;;;;2.32;80.40;101278.06;5031963;28;20037;-86
2022/04/04 05:44:41;;;;;;;12.40;7.78;;;;;;;2.35;80.81;101261.00;5030687;28;20116;-86
2022/04/04 05:47:09;;;;;;;15.63;8.45;;;;;;;2.36;80.53;101260.94;5029912;28;20124;-89
2022/04/04 05:49:35;;;;;;;15.15;9.10;;;;;;;2.42;80.71;101257.16;5026041;28;20416;-90
2022/04/04 05:52:00;;;;;;;16.85;9.82;;;;;;;2.44;80.29;101256.19;5030875;28;20514;-90
2022/04/04 05:54:26;;;;;;;15.82;9.68;;;;;;;2.49;79.99;101250.69;5048690;28;20021;-89
2022/04/04 05:56:51;;;;;;;16.75;9.35;;;;;;;2.57;79.95;101243.25;5032754;28;20037;-88
2022/04/04 05:59:16;;;;;;;16.73;9.55;;;;;;;2.45;80.06;101215.00;5048057;28;20115;-87
2022/04/04 06:01:42;;;;;;;14.45;8.35;;;;;;;2.63;79.38;101231.44;5049564;28;20028;-90
2022/04/04 06:04:07;;;;;;;13.93;8.75;;;;;;;2.73;79.37;101235.56;5049331;28;20044;-90
2022/04/04 06:06:32;;;;;;;13.43;8.18;;;;;;;2.77;79.32;101238.09;5030739;28;20519;-91
2022/04/04 06:08:58;;;;;;;14.90;8.13;;;;;;;2.84;78.91;101235.19;5030781;28;20041;-87
2022/04/04 06:11:24;;;;;;;12.30;7.20;;;;;;;2.85;78.26;101226.22;5029148;28;20037;-84
2022/04/04 06:13:50;;;;;;;18.58;8.40;;;;;;;2.94;77.99;101217.84;5047469;28;20523;-87
2022/04/04 06:16:16;;;;;;;15.02;8.55;;;;;;;2.96;77.69;101213.28;5021308;28;20388;-90
2022/04/04 06:18:42;;;;;;;13.43;8.18;;;;;;;3.09;76.83;101201.16;5046310;28;20036;-86
2022/04/04 06:21:08;;;;;;;14.90;7.30;;;;;;;3.16;76.50;101204.50;5049856;28;20069;-86
2022/04/04 06:23:33;;;;;;;11.13;7.75;;;;;;;3.21;76.03;101203.38;5045244;28;20354;-90
2022/04/04 06:26:00;;;;;;;12.20;7.80;;;;;;;3.29;75.98;101209.38;5029665;28;20029;-87
2022/04/04 06:28:27;;;;;;;12.02;7.68;;;;;;;3.35;75.73;101202.00;5027386;28;20041;-85
2022/04/04 06:30:54;;;;;;;14.20;7.95;;;;;;;3.40;75.94;101194.66;5031760;28;20098;-89
2022/04/04 06:33:19;;;;;;;12.68;7.35;;;;;;;3.46;76.25;101176.47;5030918;28;20037;-86
2022/04/04 06:35:47;;;;;;;10.48;7.35;;;;;;;3.42;75.16;101177.53;5045670;28;20055;-92
2022/04/04 06:38:14;;;;;;;14.77;8.27;;;;;;;3.61;75.45;101184.91;5034092;28;20041;-85
2022/04/04 06:40:40;;;;;;;13.68;8.23;;;;;;;3.69;75.41;101182.81;5030290;28;20034;-90
2022/04/04 06:43:05;;;;;;;13.15;7.78;;;;;;;3.75;75.24;101163.72;5036375;28;20041;-91
2022/04/04 06:45:31;;;;;;;11.75;7.65;;;;;;;3.81;74.28;101161.66;5031979;28;20063;-85
2022/04/04 06:47:56;;;;;;;16.02;8.43;;;;;;;3.84;74.01;101161.53;5041492;28;20056;-86
2022/04/04 06:50:22;;;;;;;20.25;8.27;;;;;;;3.89;74.95;101164.06;5047583;28;20055;-94
2022/04/04 06:52:48;;;;;;;12.88;7.05;;;;;;;3.91;74.16;101161.28;5025424;28;20068;-85
2022/04/04 06:55:15;;;;;;;13.70;7.65;;;;;;;3.96;74.62;101146.69;5046685;28;20071;-91
2022/04/04 06:57:41;;;;;;;13.98;7.82;;;;;;;4.05;74.30;101146.34;5047347;28;20132;-87
2022/04/04 07:00:08;;;;;;;13.00;7.60;;;;;;;4.10;73.78;101146.16;5047958;28;20144;-91
2022/04/04 07:02:35;;;;;;;11.80;7.50;;;;;;;4.11;73.50;101112.94;5044279;28;20551;-91
2022/04/04 07:05:04;;;;;;;16.63;7.53;;;;;;;4.21;73.41;101121.50;5029911;28;20059;-87
2022/04/04 07:07:30;;;;;;;10.43;7.55;;;;;;;4.37;73.23;101135.19;5026777;28;20068;-86
2022/04/04 07:09:56;;;;;;;15.43;8.32;;;;;;;4.43;72.50;101113.38;5029432;28;20057;-87
2022/04/04 07:12:22;;;;;;;13.32;7.38;;;;;;;4.52;72.42;101116.56;5037382;28;20037;-91
2022/04/04 07:14:47;;;;;;;12.52;7.22;;;;;;;4.56;72.07;101114.59;5032317;28;20062;-89
2022/04/04 07:17:12;;;;;;;12.82;7.35;;;;;;;4.63;72.34;101105.31;5045321;28;20025;-86
2022/04/04 07:19:38;;;;;;;13.18;7.25;;;;;;;4.65;72.12;101095.34;5030940;28;20036;-89
2022/04/04 07:22:04;;;;;;;12.02;8.32;;;;;;;4.75;71.18;101090.41;5046099;28;20056;-85
2022/04/04 07:24:29;;;;;;;14.20;7.78;;;;;;;4.76;70.76;101087.66;5047600;28;20123;-91
2022/04/04 07:26:56;;;;;;;9.93;6.70;;;;;;;4.79;71.25;101082.13;5045742;28;20025;-91
2022/04/04 07:29:22;;;;;;;11.85;7.40;;;;;;;4.83;70.57;101072.97;5026863;28;20449;-88
2022/04/04 07:31:47;;;;;;;10.70;7.63;;;;;;;4.88;70.94;101078.13;5025330;28;20131;-87
2022/04/04 07:34:13;;;;;;;12.70;7.10;;;;;;;4.96;70.69;101075.97;5024692;28;20412;-86
2022/04/04 07:36:40;;;;;;;15.35;6.93;;;;;;;5.05;71.00;101082.78;5019956;28;20026;-90
2022/04/04 07:39:06;;;;;;;11.32;6.93;;;;;;;5.10;70.57;101080.75;5044679;28;20099;-90
2022/04/04 07:41:31;;;;;;;9.68;6.97;;;;;;;5.14;70.04;101059.91;5031649;28;20071;-87
2022/04/04 07:43:57;;;;;;;17.83;7.60;;;;;;;5.14;69.47;101060.78;5046870;28;20065;-86
2022/04/04 07:46:22;;;;;;;10.68;6.57;;;;;;;5.17;69.98;101059.75;5027514;28;20405;-89
2022/04/04 07:48:47;;;;;;;13.40;6.50;;;;;;;5.21;69.71;101061.34;5016687;28;20037;-85
2022/04/04 07:51:13;;;;;;;10.20;7.22;;;;;;;5.17;70.62;101041.75;5029098;28;20031;-87
2022/04/04 07:53:39;;;;;;;10.38;7.10;;;;;;;5.32;70.43;101038.34;5029439;28;20068;-90
2022/04/04 07:56:04;;;;;;;9.15;6.90;;;;;;;5.31;69.69;101017.69;5015446;28;20095;-86
2022/04/04 07:58:30;;;;;;;11.25;7.47;;;;;;;5.41;70.15;101028.94;5019939;28;20479;-93
2022/04/04 08:00:55;;;;;;;11.50;7.28;;;;;;;5.51;69.43;101023.97;5042285;28;20064;-87
2022/04/04 08:03:22;;;;;;;11.73;6.85;;;;;;;5.57;68.97;101018.25;5046117;28;20090;-89
2022/04/04 08:05:48;;;;;;;10.85;6.45;;;;;;;5.63;68.67;101013.44;5045982;28;20083;-91
2022/04/04 08:08:13;;;;;;;12.25;7.03;;;;;;;5.75;68.73;101016.50;5043849;28;20116;-87
2022/04/04 08:10:38;;;;;;;15.80;6.65;;;;;;;5.85;67.90;101009.66;5030359;28;20057;-85
2022/04/04 08:13:04;;;;;;;13.77;7.40;;;;;;;5.92;67.66;101002.16;5029626;28;20033;-87
2022/04/04 08:15:30;;;;;;;11.65;6.47;;;;;;;5.99;66.92;101007.19;5032887;28;20037;-88
2022/04/04 08:17:55;;;;;;;10.63;7.38;;;;;;;6.04;66.89;100996.16;5046218;28;20483;-86
2022/04/04 08:20:21;;;;;;;10.63;6.88;;;;;;;6.05;66.56;100990.66;5046402;28;20033;-86
2022/04/04 08:22:47;;;;;;;13.23;6.57;;;;;;;6.12;68.30;100989.41;5028445;28;20117;-88
2022/04/04 08:25:14;;;;;;;12.60;6.63;;;;;;;6.24;65.90;100977.06;5027183;28;20103;-87
2022/04/04 08:27:41;;;;;;;12.85;6.30;;;;;;;6.26;65.59;100969.78;5035029;28;20044;-86
2022/04/04 08:30:09;;;;;;;13.23;7.43;;;;;;;6.29;65.95;100971.41;5046781;28;20064;-86
2022/04/04 08:32:39;;;;;;;12.77;6.10;;;;;;;6.30;65.90;100959.69;5034084;28;20047;-87
2022/04/04 08:35:06;;;;;;;9.30;5.55;;;;;;;6.43;65.38;100962.59;5028927;28;20075;-85
2022/04/04 08:37:33;;;;;;;8.80;5.75;;;;;;;6.52;64.64;100951.28;5044727;28;20025;-91
2022/04/04 08:39:59;;;;;;;14.25;5.95;;;;;;;6.60;64.99;100936.41;5038863;28;20574;-91
2022/04/04 08:42:27;;;;;;;8.45;6.10;;;;;;;6.73;63.62;100951.97;5046569;28;20460;-86
2022/04/04 08:45:00;;;;;;;9.73;6.53;;;;;;;6.79;64.16;100952.47;5030318;28;20030;-85
2022/04/04 08:47:29;;;;;;;9.77;6.40;;;;;;;6.73;63.32;100933.91;5026117;28;20041;-88
2022/04/04 08:49:55;;;;;;;11.95;6.72;;;;;;;6.77;64.10;100931.91;5051886;28;20029;-87
2022/04/04 08:52:22;;;;;;;9.48;5.65;;;;;;;6.82;64.31;100936.09;5048082;28;20327;-93
2022/04/04 08:54:48;;;;;;;13.20;6.75;;;;;;;6.77;64.09;100932.78;5035343;28;20111;-91
2022/04/04 08:57:14;;;;;;;12.05;6.47;;;;;;;6.76;64.57;100919.31;5045384;28;20452;-90
2022/04/04 08:59:42;;;;;;;10.82;6.78;;;;;;;6.68;64.34;100927.00;5051116;28;20040;-87
2022/04/04 09:02:08;;;;;;;10.50;6.85;;;;;;;6.60;65.06;100927.41;5040583;28;20029;-90
2022/04/04 09:04:34;;;;;;;12.15;6.95;;;;;;;6.53;65.37;100921.50;5046712;28;20100;-87
2022/04/04 09:07:05;;;;;;;13.88;7.07;;;;;;;6.54;65.26;100934.03;5031618;28;20150;-85
2022/04/04 09:09:43;;;;;;;14.60;6.03;;;;;;;6.45;66.44;100909.34;5043219;28;20049;-90
2022/04/04 09:12:17;;;;;;;12.20;6.85;;;;;;;6.46;66.37;100922.75;5052192;28;20033;-86
2022/04/04 09:14:45;;;;;;;12.13;7.82;;;;;;;6.44;67.14;100911.19;5050398;28;20152;-89
2022/04/04 09:17:12;;;;;;;12.43;6.93;;;;;;;6.36;66.77;100889.09;5045764;28;20037;-87
2022/04/04 09:19:38;;;;;;;12.32;7.65;;;;;;;6.44;66.79;100913.88;5015158;28;20503;-89
2022/04/04 09:22:09;;;;;;;9.93;5.90;;;;;;;6.35;67.14;100882.81;5040536;28;20068;-87
2022/04/04 09:24:47;;;;;;;11.02;7.18;;;;;;;6.38;67.43;100906.09;5026241;28;20392;-91
2022/04/04 09:27:17;;;;;;;12.30;7.32;;;;;;;6.38;67.48;100890.75;5033377;28;20090;-91
2022/04/04 09:29:43;;;;;;;12.25;7.28;;;;;;;6.43;68.19;100903.13;5046312;28;20041;-91
2022/04/04 09:32:12;;;;;;;8.63;6.60;;;;;;;6.34;68.66;100897.31;5047581;28;20079;-92
2022/04/04 09:35:00;;;;;;;12.60;6.90;;;;;;;6.33;69.23;100879.31;5041149;28;20065;-88
2022/04/04 09:37:28;;;;;;;14.05;7.80;;;;;;;6.23;70.40;100879.91;5029208;28;20033;-92
2022/04/04 09:40:08;;;;;;;10.85;7.03;;;;;;;6.18;70.56;100887.38;5040072;28;20400;-89
2022/04/04 09:42:34;;;;;;;12.15;8.07;;;;;;;6.13;71.80;100884.94;5033823;28;20369;-86
2022/04/04 09:45:09;;;;;;;17.65;7.78;;;;;;;6.05;72.01;100871.81;5035902;28;20049;-87
2022/04/04 09:48:08;;;;;;;13.98;7.82;;;;;;;6.08;72.02;100874.38;5031084;28;20159;-92
2022/04/04 09:50:35;;;;;;;17.65;7.85;;;;;;;6.03;71.97;100881.84;5006388;28;20135;-86
2022/04/04 09:53:02;;;;;;;13.93;8.48;;;;;;;5.97;73.21;100879.47;5038193;28;20099;-92
2022/04/04 09:55:52;;;;;;;12.10;7.72;;;;;;;5.93;73.22;100874.31;5015133;28;20314;-86
2022/04/04 09:58:22;;;;;;;14.63;8.05;;;;;;;5.95;74.29;100878.66;5030676;28;20068;-92
2022/04/04 10:00:49;;;;;;;10.98;8.13;;;;;;;5.90;74.16;100864.50;5031708;28;20034;-88
2022/04/04 10:03:19;;;;;;;11.88;7.47;;;;;;;5.83;73.91;100849.59;5048905;28;20029;-88
2022/04/04 10:05:51;;;;;;;12.63;7.72;;;;;;;5.83;74.51;100874.78;5034265;28;20064;-88
2022/04/04 10:08:17;;;;;;;14.40;7.67;;;;;;;5.83;75.08;100855.00;5029622;28;20041;-92
2022/04/04 10:10:44;;;;;;;15.90;8.68;;;;;;;5.83;75.26;100850.47;5047841;28;20377;-94
2022/04/04 10:13:12;;;;;;;13.35;7.40;;;;;;;5.77;75.97;100842.69;5043528;28;20041;-86
2022/04/04 10:15:38;;;;;;;12.85;8.43;;;;;;;5.77;76.42;100842.69;5028555;28;20492;-86
2022/04/04 10:18:04;;;;;;;13.43;8.93;;;;;;;5.86;76.34;100844.03;5043126;28;20127;-85
2022/04/04 10:20:30;;;;;;;15.90;8.10;;;;;;;5.85;76.70;100836.88;5050765;28;20061;-88
2022/04/04 10:22:56;;;;;;;17.35;8.23;;;;;;;5.86;76.56;100827.81;5046298;28;20071;-86
2022/04/04 10:25:25;;;;;;;13.77;8.18;;;;;;;5.95;77.16;100842.69;5031297;28;20127;-91
2022/04/04 10:27:52;;;;;;;15.57;8.45;;;;;;;5.89;77.54;100841.19;5043579;28;20031;-87
2022/04/04 10:30:29;;;;;;;15.25;7.43;;;;;;;5.92;77.58;100835.63;5049748;28;20043;-86
2022/04/04 10:32:55;;;;;;;15.75;8.40;;;;;;;5.92;78.13;100824.81;5035097;28;20037;-86
2022/04/04 10:35:22;;;;;;;15.10;8.05;;;;;;;5.96;78.29;100842.63;5049997;28;20087;-86
2022/04/04 10:37:49;;;;;;;13.45;8.32;;;;;;;5.92;78.44;100827.53;5040926;28;20037;-89
2022/04/04 10:40:20;;;;;;;14.65;9.70;;;;;;;5.91;79.08;100836.56;5037804;28;20028;-87
2022/04/04 10:42:48;;;;;;;11.40;7.22;;;;;;;5.91;79.71;100841.94;5063771;28;20064;-92
2022/04/04 10:45:18;;;;;;;16.55;8.73;;;;;;;5.91;79.85;100841.94;5026226;28;20037;-94
2022/04/04 10:47:46;;;;;;;12.50;8.23;;;;;;;5.85;80.43;100826.97;5051011;28;20057;-88
2022/04/04 10:50:30;;;;;;;15.35;8.00;;;;;;;5.88;80.16;100832.22;5033029;28;20311;-87
2022/04/04 10:53:00;;;;;;;17.30;8.85;;;;;;;5.81;81.58;100821.81;5037446;28;20491;-90
2022/04/04 10:55:38;;;;;;;11.98;8.05;;;;;;;5.83;81.35;100836.97;5031025;28;20033;-85
2022/04/04 10:58:07;;;;;;;15.85;8.35;;;;;;;5.83;82.46;100820.78;5045946;28;20045;-89
2022/04/04 11:00:35;;;;;;;14.73;8.40;;;;;;;5.82;82.28;100810.91;5035849;28;20099;-88
2022/04/04 11:03:03;;;;;;;14.27;7.97;;;;;;;5.80;82.46;100807.44;5046209;28;20484;-86
2022/04/04 11:08:30;;;;;;;15.07;8.27;;;;;;;5.86;82.58;100799.00;5037360;28;20041;-82
2022/04/04 11:10:57;;;;;;;14.45;7.68;;;;;;;5.89;82.68;100795.28;5030242;28;20049;-87
2022/04/04 11:13:24;;;;;;;11.32;8.05;;;;;;;5.81;83.27;100794.81;5032560;28;20041;-84
2022/04/04 11:15:55;;;;;;;10.80;6.82;;;;;;;5.81;83.27;100805.59;5030344;28;20408;-86
2022/04/04 11:18:22;;;;;;;10.23;7.40;;;;;;;5.78;83.83;100786.88;5046943;28;20506;-88
2022/04/04 11:20:58;;;;;;;10.50;7.38;;;;;;;5.77;83.76;100794.09;5046792;28;20021;-83
2022/04/04 11:23:27;;;;;;;12.55;6.80;;;;;;;5.71;83.04;100789.03;5025557;28;20044;-82
2022/04/04 11:25:53;;;;;;;9.05;7.03;;;;;;;5.70;84.24;100787.28;5029313;28;20415;-86
2022/04/04 11:28:22;;;;;;;11.73;7.68;;;;;;;5.70;83.90;100787.28;5028630;28;20372;-84
2022/04/04 11:30:52;;;;;;;11.07;7.28;;;;;;;5.65;84.15;100767.78;5016873;28;20037;-82
2022/04/04 11:33:22;;;;;;;9.50;6.65;;;;;;;5.59;84.12;100778.88;5022519;28;20472;-83